sensor_id;sensor_type;location;lat;lon;timestamp;noise_LAeq;noise_LA_min;noise_LA_max;noise_LA01;noise_LA95
48148;Laerm;29352;48.708;9.290;2023-10-08T00:00:46;15.00;15.00;15.00;;
48148;Laerm;29352;48.708;9.290;2023-10-08T00:03:16;15.00;15.00;15.00;;
48148;Laerm;29352;48.708;9.290;2023-10-08T00:05:46;15.00;15.00;15.00;;
48148;Laerm;29352;48.708;9.290;2023-10-08T00:08:12;15.00;15.00;15.00;;
48148;Laerm;29352;48.708;9.290;2023-10-08T00:10:43;61.88;15.00;93.36;;
48148;Laerm;29352;48.708;9.290;2023-10-08T00:13:14;67.39;15.00;96.21;;
48148;Laerm;29352;48.708;9.290;2023-10-08T00:15:44;63.53;15.00;96.21;;
48148;Laerm;29352;48.708;9.290;2023-10-08T00:18:22;64.45;15.00;96.22;;
48148;Laerm;29352;48.708;9.290;2023-10-08T00:20:51;62.25;15.00;93.72;;
48148;Laerm;29352;48.708;9.290;2023-10-08T00:23:36;58.52;15.00;93.71;;
48148;Laerm;29352;48.708;9.290;2023-10-08T00:26:04;62.93;15.00;96.22;;
48148;Laerm;29352;48.708;9.290;2023-10-08T00:28:30;47.97;15.00;84.16;;
48148;Laerm;29352;48.708;9.290;2023-10-08T00:30:58;59.98;15.00;96.21;;
48148;Laerm;29352;48.708;9.290;2023-10-08T00:33:30;57.30;15.00;93.71;;
48148;Laerm;29352;48.708;9.290;2023-10-08T00:35:56;15.00;15.00;15.00;;
48148;Laerm;29352;48.708;9.290;2023-10-08T00:38:21;66.97;15.00;96.21;;
48148;Laerm;29352;48.708;9.290;2023-10-08T00:40:49;64.95;15.00;96.22;;
48148;Laerm;29352;48.708;9.290;2023-10-08T00:43:34;67.11;15.00;96.22;;
48148;Laerm;29352;48.708;9.290;2023-10-08T00:46:03;53.93;15.00;90.20;;
48148;Laerm;29352;48.708;9.290;2023-10-08T00:48:30;65.16;15.00;96.21;;
48148;Laerm;29352;48.708;9.290;2023-10-08T00:51:02;64.06;15.00;96.21;;
48148;Laerm;29352;48.708;9.290;2023-10-08T00:54:00;65.40;15.00;96.21;;
48148;Laerm;29352;48.708;9.290;2023-10-08T00:56:34;67.56;15.00;96.22;;
48148;Laerm;29352;48.708;9.290;2023-10-08T00:59:16;67.92;15.00;96.21;;
48148;Laerm;29352;48.708;9.290;2023-10-08T01:01:45;68.18;15.00;96.21;;
48148;Laerm;29352;48.708;9.290;2023-10-08T01:04:22;65.79;15.00;96.21;;
48148;Laerm;29352;48.708;9.290;2023-10-08T01:06:52;65.14;15.00;93.72;;
48148;Laerm;29352;48.708;9.290;2023-10-08T01:09:25;68.13;15.00;96.21;;
48148;Laerm;29352;48.708;9.290;2023-10-08T01:15:03;65.56;15.00;96.21;;
48148;Laerm;29352;48.708;9.290;2023-10-08T01:17:50;65.28;15.00;96.21;;
48148;Laerm;29352;48.708;9.290;2023-10-08T01:20:39;62.51;15.00;96.21;;
48148;Laerm;29352;48.708;9.290;2023-10-08T01:23:16;63.48;15.00;96.21;;
48148;Laerm;29352;48.708;9.290;2023-10-08T01:25:47;61.47;15.00;93.72;;
48148;Laerm;29352;48.708;9.290;2023-10-08T01:28:26;63.73;15.00;96.21;;
48148;Laerm;29352;48.708;9.290;2023-10-08T01:30:57;66.82;15.00;96.21;;
48148;Laerm;29352;48.708;9.290;2023-10-08T01:33:28;67.73;15.00;96.21;;
48148;Laerm;29352;48.708;9.290;2023-10-08T01:35:55;67.25;15.00;96.22;;
48148;Laerm;29352;48.708;9.290;2023-10-08T01:38:20;54.97;15.00;90.19;;
48148;Laerm;29352;48.708;9.290;2023-10-08T01:40:50;64.77;15.00;96.21;;
48148;Laerm;29352;48.708;9.290;2023-10-08T01:43:17;65.02;15.00;96.21;;
48148;Laerm;29352;48.708;9.290;2023-10-08T01:45:43;64.67;15.00;96.22;;
48148;Laerm;29352;48.708;9.290;2023-10-08T01:48:15;64.03;15.00;95.86;;
48148;Laerm;29352;48.708;9.290;2023-10-08T01:50:47;62.63;15.00;96.21;;
48148;Laerm;29352;48.708;9.290;2023-10-08T01:53:14;66.84;15.00;96.21;;
48148;Laerm;29352;48.708;9.290;2023-10-08T01:55:41;63.11;15.00;93.72;;
48148;Laerm;29352;48.708;9.290;2023-10-08T01:58:18;66.95;15.00;96.21;;
48148;Laerm;29352;48.708;9.290;2023-10-08T02:00:46;65.78;15.00;96.22;;
48148;Laerm;29352;48.708;9.290;2023-10-08T02:03:16;65.36;15.00;95.41;;
48148;Laerm;29352;48.708;9.290;2023-10-08T02:05:44;62.79;15.00;96.22;;
48148;Laerm;29352;48.708;9.290;2023-10-08T02:08:12;69.02;15.00;96.22;;
48148;Laerm;29352;48.708;9.290;2023-10-08T02:10:41;63.11;15.00;93.72;;
48148;Laerm;29352;48.708;9.290;2023-10-08T02:13:09;68.73;15.00;96.21;;
48148;Laerm;29352;48.708;9.290;2023-10-08T02:15:40;64.54;15.00;96.21;;
48148;Laerm;29352;48.708;9.290;2023-10-08T02:18:05;67.70;15.00;96.22;;
48148;Laerm;29352;48.708;9.290;2023-10-08T02:20:32;66.42;15.00;96.21;;
48148;Laerm;29352;48.708;9.290;2023-10-08T02:22:58;64.30;15.00;96.21;;
48148;Laerm;29352;48.708;9.290;2023-10-08T02:25:25;65.49;15.00;95.99;;
48148;Laerm;29352;48.708;9.290;2023-10-08T02:27:51;60.27;15.00;93.71;;
48148;Laerm;29352;48.708;9.290;2023-10-08T02:30:17;66.78;15.00;96.21;;
48148;Laerm;29352;48.708;9.290;2023-10-08T02:32:43;68.18;15.00;96.22;;
48148;Laerm;29352;48.708;9.290;2023-10-08T02:35:10;66.93;15.00;96.21;;
48148;Laerm;29352;48.708;9.290;2023-10-08T02:37:40;68.34;15.00;96.21;;
48148;Laerm;29352;48.708;9.290;2023-10-08T02:40:08;69.46;15.00;96.22;;
48148;Laerm;29352;48.708;9.290;2023-10-08T02:42:53;64.24;15.00;96.21;;
48148;Laerm;29352;48.708;9.290;2023-10-08T02:45:27;63.27;15.00;95.87;;
48148;Laerm;29352;48.708;9.290;2023-10-08T02:47:55;59.07;15.00;93.71;;
48148;Laerm;29352;48.708;9.290;2023-10-08T02:50:24;59.02;15.00;93.72;;
48148;Laerm;29352;48.708;9.290;2023-10-08T02:52:52;15.00;15.00;15.00;;
48148;Laerm;29352;48.708;9.290;2023-10-08T02:55:18;63.53;15.00;96.22;;
48148;Laerm;29352;48.708;9.290;2023-10-08T02:57:53;57.71;15.00;93.72;;
48148;Laerm;29352;48.708;9.290;2023-10-08T03:00:19;50.98;15.00;84.18;;
48148;Laerm;29352;48.708;9.290;2023-10-08T03:02:46;50.95;15.00;84.18;;
48148;Laerm;29352;48.708;9.290;2023-10-08T03:05:12;54.94;15.00;90.19;;
48148;Laerm;29352;48.708;9.290;2023-10-08T03:07:43;16.73;15.00;47.88;;
48148;Laerm;29352;48.708;9.290;2023-10-08T03:10:10;66.48;15.00;96.21;;
48148;Laerm;29352;48.708;9.290;2023-10-08T03:12:46;65.84;15.00;96.21;;
48148;Laerm;29352;48.708;9.290;2023-10-08T03:15:14;66.82;15.00;96.21;;
48148;Laerm;29352;48.708;9.290;2023-10-08T03:17:55;66.18;15.00;96.21;;
48148;Laerm;29352;48.708;9.290;2023-10-08T03:20:23;65.75;15.00;96.22;;
48148;Laerm;29352;48.708;9.290;2023-10-08T03:23:10;59.46;15.00;90.20;;
48148;Laerm;29352;48.708;9.290;2023-10-08T03:25:56;59.42;15.00;96.22;;
48148;Laerm;29352;48.708;9.290;2023-10-08T03:28:37;65.80;15.00;96.22;;
48148;Laerm;29352;48.708;9.290;2023-10-08T03:31:06;65.29;15.00;96.21;;
48148;Laerm;29352;48.708;9.290;2023-10-08T03:33:41;65.06;15.00;96.21;;
48148;Laerm;29352;48.708;9.290;2023-10-08T03:36:08;61.77;15.00;96.21;;
48148;Laerm;29352;48.708;9.290;2023-10-08T03:38:47;65.86;15.00;96.21;;
48148;Laerm;29352;48.708;9.290;2023-10-08T03:41:25;59.90;15.00;93.71;;
48148;Laerm;29352;48.708;9.290;2023-10-08T03:43:56;56.32;15.00;90.20;;
48148;Laerm;29352;48.708;9.290;2023-10-08T03:46:29;65.69;15.00;96.21;;
48148;Laerm;29352;48.708;9.290;2023-10-08T03:48:54;65.61;15.00;96.22;;
48148;Laerm;29352;48.708;9.290;2023-10-08T03:51:23;64.98;15.00;93.72;;
48148;Laerm;29352;48.708;9.290;2023-10-08T03:53:53;63.38;15.00;95.86;;
48148;Laerm;29352;48.708;9.290;2023-10-08T03:56:42;56.89;15.00;93.71;;
48148;Laerm;29352;48.708;9.290;2023-10-08T03:59:18;15.00;15.00;15.00;;
48148;Laerm;29352;48.708;9.290;2023-10-08T04:02:01;53.50;15.00;90.19;;
48148;Laerm;29352;48.708;9.290;2023-10-08T04:04:41;63.12;15.00;93.72;;
48148;Laerm;29352;48.708;9.290;2023-10-08T04:07:23;57.11;15.00;93.72;;
48148;Laerm;29352;48.708;9.290;2023-10-08T04:09:59;60.20;15.00;93.71;;
48148;Laerm;29352;48.708;9.290;2023-10-08T04:12:33;57.72;15.00;93.72;;
48148;Laerm;29352;48.708;9.290;2023-10-08T04:15:09;68.30;15.00;96.21;;
48148;Laerm;29352;48.708;9.290;2023-10-08T04:17:38;66.94;15.00;96.21;;
48148;Laerm;29352;48.708;9.290;2023-10-08T04:20:14;66.34;15.00;95.86;;
48148;Laerm;29352;48.708;9.290;2023-10-08T04:23:04;66.08;15.00;96.21;;
48148;Laerm;29352;48.708;9.290;2023-10-08T04:25:32;66.66;15.00;96.22;;
48148;Laerm;29352;48.708;9.290;2023-10-08T04:28:00;65.92;15.00;96.22;;
48148;Laerm;29352;48.708;9.290;2023-10-08T04:30:28;57.46;15.00;93.71;;
48148;Laerm;29352;48.708;9.290;2023-10-08T04:33:02;57.71;15.00;93.71;;
48148;Laerm;29352;48.708;9.290;2023-10-08T04:35:42;66.72;15.00;96.21;;
48148;Laerm;29352;48.708;9.290;2023-10-08T04:38:19;62.12;15.00;93.72;;
48148;Laerm;29352;48.708;9.290;2023-10-08T04:40:47;64.11;15.00;95.86;;
48148;Laerm;29352;48.708;9.290;2023-10-08T04:43:22;61.47;15.00;96.22;;
48148;Laerm;29352;48.708;9.290;2023-10-08T04:46:00;61.36;15.00;95.86;;
48148;Laerm;29352;48.708;9.290;2023-10-08T04:48:45;59.99;15.00;93.72;;
48148;Laerm;29352;48.708;9.290;2023-10-08T04:51:11;65.89;15.00;94.17;;
48148;Laerm;29352;48.708;9.290;2023-10-08T04:53:39;61.89;15.00;93.72;;
48148;Laerm;29352;48.708;9.290;2023-10-08T04:56:11;57.77;15.00;90.20;;
48148;Laerm;29352;48.708;9.290;2023-10-08T04:58:44;15.00;15.00;15.00;;
48148;Laerm;29352;48.708;9.290;2023-10-08T05:01:15;15.00;15.00;15.00;;
48148;Laerm;29352;48.708;9.290;2023-10-08T05:03:51;61.46;15.00;96.21;;
48148;Laerm;29352;48.708;9.290;2023-10-08T05:06:32;62.03;15.00;96.21;;
48148;Laerm;29352;48.708;9.290;2023-10-08T05:09:10;63.17;15.00;96.21;;
48148;Laerm;29352;48.708;9.290;2023-10-08T05:11:48;65.53;15.00;96.22;;
48148;Laerm;29352;48.708;9.290;2023-10-08T05:14:22;63.64;15.00;93.72;;
48148;Laerm;29352;48.708;9.290;2023-10-08T05:17:06;15.00;15.00;15.00;;
48148;Laerm;29352;48.708;9.290;2023-10-08T05:19:44;15.00;15.00;15.00;;
48148;Laerm;29352;48.708;9.290;2023-10-08T05:22:17;15.00;15.00;15.00;;
48148;Laerm;29352;48.708;9.290;2023-10-08T05:24:49;15.00;15.00;15.00;;
48148;Laerm;29352;48.708;9.290;2023-10-08T05:27:42;15.00;15.00;15.00;;
48148;Laerm;29352;48.708;9.290;2023-10-08T05:30:30;56.90;15.00;93.71;;
48148;Laerm;29352;48.708;9.290;2023-10-08T05:33:18;15.00;15.00;15.00;;
48148;Laerm;29352;48.708;9.290;2023-10-08T05:35:52;15.00;15.00;15.00;;
48148;Laerm;29352;48.708;9.290;2023-10-08T05:38:35;15.00;15.00;15.00;;
48148;Laerm;29352;48.708;9.290;2023-10-08T05:41:00;61.59;15.00;93.72;;
48148;Laerm;29352;48.708;9.290;2023-10-08T05:43:34;15.00;15.00;15.00;;
48148;Laerm;29352;48.708;9.290;2023-10-08T05:46:04;65.09;15.00;96.22;;
48148;Laerm;29352;48.708;9.290;2023-10-08T05:48:44;57.09;15.00;93.72;;
48148;Laerm;29352;48.708;9.290;2023-10-08T05:51:28;54.48;15.00;90.20;;
48148;Laerm;29352;48.708;9.290;2023-10-08T05:54:16;15.00;15.00;15.00;;
48148;Laerm;29352;48.708;9.290;2023-10-08T05:57:01;15.00;15.00;15.00;;
48148;Laerm;29352;48.708;9.290;2023-10-08T05:59:43;15.69;15.00;43.90;;
48148;Laerm;29352;48.708;9.290;2023-10-08T06:02:22;59.98;15.00;93.72;;
48148;Laerm;29352;48.708;9.290;2023-10-08T06:05:02;64.09;15.00;96.21;;
48148;Laerm;29352;48.708;9.290;2023-10-08T06:07:41;63.44;15.00;93.72;;
48148;Laerm;29352;48.708;9.290;2023-10-08T06:10:23;62.48;15.00;96.21;;
48148;Laerm;29352;48.708;9.290;2023-10-08T06:13:03;15.00;15.00;15.00;;
48148;Laerm;29352;48.708;9.290;2023-10-08T06:18:26;15.00;15.00;15.00;;
48148;Laerm;29352;48.708;9.290;2023-10-08T06:21:01;60.37;15.00;93.72;;
48148;Laerm;29352;48.708;9.290;2023-10-08T06:23:32;58.84;15.00;93.71;;
48148;Laerm;29352;48.708;9.290;2023-10-08T06:25:58;15.81;15.00;44.31;;
48148;Laerm;29352;48.708;9.290;2023-10-08T06:28:26;59.37;15.00;90.20;;
48148;Laerm;29352;48.708;9.290;2023-10-08T06:30:54;57.48;15.00;93.71;;
48148;Laerm;29352;48.708;9.290;2023-10-08T06:33:22;15.00;15.00;15.00;;
48148;Laerm;29352;48.708;9.290;2023-10-08T06:35:51;15.08;15.00;33.90;;
48148;Laerm;29352;48.708;9.290;2023-10-08T06:38:46;59.49;15.00;96.21;;
48148;Laerm;29352;48.708;9.290;2023-10-08T06:41:16;55.64;15.00;90.19;;
48148;Laerm;29352;48.708;9.290;2023-10-08T06:43:48;60.10;15.00;96.21;;
48148;Laerm;29352;48.708;9.290;2023-10-08T06:46:19;59.84;15.00;96.21;;
48148;Laerm;29352;48.708;9.290;2023-10-08T06:48:46;15.00;15.00;15.00;;
48148;Laerm;29352;48.708;9.290;2023-10-08T06:51:15;15.00;15.00;15.00;;
48148;Laerm;29352;48.708;9.290;2023-10-08T06:53:47;15.00;15.00;15.00;;
48148;Laerm;29352;48.708;9.290;2023-10-08T06:56:15;15.00;15.00;15.00;;
48148;Laerm;29352;48.708;9.290;2023-10-08T06:58:42;57.47;15.00;93.72;;
48148;Laerm;29352;48.708;9.290;2023-10-08T07:01:16;15.00;15.00;15.00;;
48148;Laerm;29352;48.708;9.290;2023-10-08T07:03:48;15.00;15.00;15.00;;
48148;Laerm;29352;48.708;9.290;2023-10-08T07:06:18;15.00;15.00;15.00;;
48148;Laerm;29352;48.708;9.290;2023-10-08T07:08:58;15.00;15.00;15.00;;
48148;Laerm;29352;48.708;9.290;2023-10-08T07:11:26;15.00;15.00;15.00;;
48148;Laerm;29352;48.708;9.290;2023-10-08T07:13:52;15.00;15.00;15.00;;
48148;Laerm;29352;48.708;9.290;2023-10-08T07:16:19;15.00;15.00;15.00;;
48148;Laerm;29352;48.708;9.290;2023-10-08T07:18:47;15.00;15.00;15.00;;
48148;Laerm;29352;48.708;9.290;2023-10-08T07:21:20;15.00;15.00;15.00;;
48148;Laerm;29352;48.708;9.290;2023-10-08T07:23:57;15.00;15.00;15.00;;
48148;Laerm;29352;48.708;9.290;2023-10-08T07:26:28;15.00;15.00;15.00;;
48148;Laerm;29352;48.708;9.290;2023-10-08T07:29:05;15.00;15.00;15.00;;
48148;Laerm;29352;48.708;9.290;2023-10-08T07:31:35;17.88;15.00;45.36;;
48148;Laerm;29352;48.708;9.290;2023-10-08T07:34:02;48.54;15.00;53.76;;
48148;Laerm;29352;48.708;9.290;2023-10-08T07:36:46;50.80;15.00;53.77;;
48148;Laerm;29352;48.708;9.290;2023-10-08T07:39:20;51.14;15.00;53.86;;
48148;Laerm;29352;48.708;9.290;2023-10-08T07:42:02;52.52;15.00;54.19;;
48148;Laerm;29352;48.708;9.290;2023-10-08T07:44:31;51.42;15.00;54.07;;
48148;Laerm;29352;48.708;9.290;2023-10-08T07:46:57;15.00;15.00;15.00;;
48148;Laerm;29352;48.708;9.290;2023-10-08T07:49:24;15.00;15.00;15.00;;
48148;Laerm;29352;48.708;9.290;2023-10-08T07:51:53;58.90;15.00;93.72;;
48148;Laerm;29352;48.708;9.290;2023-10-08T07:54:24;57.39;15.00;93.71;;
48148;Laerm;29352;48.708;9.290;2023-10-08T07:56:54;63.99;15.00;96.21;;
48148;Laerm;29352;48.708;9.290;2023-10-08T07:59:37;47.56;15.00;84.18;;
48148;Laerm;29352;48.708;9.290;2023-10-08T08:02:08;57.28;15.00;93.71;;
48148;Laerm;29352;48.708;9.290;2023-10-08T08:04:40;15.51;15.00;41.68;;
48148;Laerm;29352;48.708;9.290;2023-10-08T08:07:07;17.57;15.00;43.90;;
48148;Laerm;29352;48.708;9.290;2023-10-08T08:09:33;47.98;15.00;84.18;;
48148;Laerm;29352;48.708;9.290;2023-10-08T08:12:07;16.08;15.00;43.90;;
48148;Laerm;29352;48.708;9.290;2023-10-08T08:14:35;15.00;15.00;15.00;;
48148;Laerm;29352;48.708;9.290;2023-10-08T08:17:05;59.93;15.00;96.21;;
48148;Laerm;29352;48.708;9.290;2023-10-08T08:19:42;59.69;15.00;96.21;;
48148;Laerm;29352;48.708;9.290;2023-10-08T08:22:11;15.00;15.00;15.00;;
48148;Laerm;29352;48.708;9.290;2023-10-08T08:24:54;56.90;15.00;90.20;;
48148;Laerm;29352;48.708;9.290;2023-10-08T08:27:41;57.37;15.00;93.71;;
48148;Laerm;29352;48.708;9.290;2023-10-08T08:30:10;62.95;15.00;96.21;;
48148;Laerm;29352;48.708;9.290;2023-10-08T08:32:37;47.90;15.00;53.90;;
48148;Laerm;29352;48.708;9.290;2023-10-08T08:35:09;48.84;15.00;53.58;;
48148;Laerm;29352;48.708;9.290;2023-10-08T08:37:37;46.72;15.00;53.24;;
48148;Laerm;29352;48.708;9.290;2023-10-08T08:40:10;42.96;15.00;53.04;;
48148;Laerm;29352;48.708;9.290;2023-10-08T08:42:48;50.06;15.00;53.58;;
48148;Laerm;29352;48.708;9.290;2023-10-08T08:45:21;51.40;15.00;53.44;;
48148;Laerm;29352;48.708;9.290;2023-10-08T08:47:48;51.49;15.00;53.24;;
48148;Laerm;29352;48.708;9.290;2023-10-08T08:50:14;51.46;15.00;53.14;;
48148;Laerm;29352;48.708;9.290;2023-10-08T08:52:40;51.56;46.69;53.04;;
48148;Laerm;29352;48.708;9.290;2023-10-08T08:55:08;51.14;15.00;52.98;;
48148;Laerm;29352;48.708;9.290;2023-10-08T08:57:47;51.38;38.67;53.04;;
48148;Laerm;29352;48.708;9.290;2023-10-08T09:00:15;51.36;48.95;52.93;;
48148;Laerm;29352;48.708;9.290;2023-10-08T09:02:43;50.00;15.00;52.82;;
48148;Laerm;29352;48.708;9.290;2023-10-08T09:05:11;49.87;15.00;53.29;;
48148;Laerm;29352;48.708;9.290;2023-10-08T09:08:05;50.82;15.00;53.04;;
48148;Laerm;29352;48.708;9.290;2023-10-08T09:10:38;50.99;48.21;52.71;;
48148;Laerm;29352;48.708;9.290;2023-10-08T09:13:20;50.93;48.52;52.53;;
48148;Laerm;29352;48.708;9.290;2023-10-08T09:15:46;50.86;48.67;52.71;;
48148;Laerm;29352;48.708;9.290;2023-10-08T09:18:12;50.80;48.52;52.59;;
48148;Laerm;29352;48.708;9.290;2023-10-08T09:20:39;50.75;48.52;52.65;;
48148;Laerm;29352;48.708;9.290;2023-10-08T09:23:15;50.71;48.21;52.41;;
48148;Laerm;29352;48.708;9.290;2023-10-08T09:25:46;50.69;48.37;52.59;;
48148;Laerm;29352;48.708;9.290;2023-10-08T09:28:15;50.69;48.05;52.65;;
48148;Laerm;29352;48.708;9.290;2023-10-08T09:30:43;50.68;48.21;52.53;;
48148;Laerm;29352;48.708;9.290;2023-10-08T09:33:12;50.58;47.88;52.35;;
48148;Laerm;29352;48.708;9.290;2023-10-08T09:35:38;50.53;48.05;52.35;;
48148;Laerm;29352;48.708;9.290;2023-10-08T09:38:06;50.42;48.05;52.35;;
48148;Laerm;29352;48.708;9.290;2023-10-08T09:40:41;50.38;47.52;52.35;;
48148;Laerm;29352;48.708;9.290;2023-10-08T09:43:10;50.39;47.32;52.35;;
48148;Laerm;29352;48.708;9.290;2023-10-08T09:45:43;50.44;48.21;52.03;;
48148;Laerm;29352;48.708;9.290;2023-10-08T09:48:16;50.48;47.88;52.53;;
48148;Laerm;29352;48.708;9.290;2023-10-08T09:50:42;50.50;47.52;52.53;;
48148;Laerm;29352;48.708;9.290;2023-10-08T09:53:14;50.48;47.88;52.53;;
48148;Laerm;29352;48.708;9.290;2023-10-08T09:55:57;50.48;47.88;52.47;;
48148;Laerm;29352;48.708;9.290;2023-10-08T09:58:26;50.44;47.70;52.16;;
48148;Laerm;29352;48.708;9.290;2023-10-08T10:00:56;50.44;48.32;52.22;;
48148;Laerm;29352;48.708;9.290;2023-10-08T10:03:24;50.52;47.70;52.29;;
48148;Laerm;29352;48.708;9.290;2023-10-08T10:05:51;50.52;48.21;52.76;;
48148;Laerm;29352;48.708;9.290;2023-10-08T10:08:17;47.05;15.00;52.47;;
48148;Laerm;29352;48.708;9.290;2023-10-08T10:10:43;24.21;15.00;51.82;;
48148;Laerm;29352;48.708;9.290;2023-10-08T10:13:17;53.79;15.00;90.19;;
48148;Laerm;29352;48.708;9.290;2023-10-08T10:15:43;60.01;15.00;96.21;;
48148;Laerm;29352;48.708;9.290;2023-10-08T10:18:26;57.40;15.00;93.71;;
48148;Laerm;29352;48.708;9.290;2023-10-08T10:20:58;22.81;15.00;46.91;;
48148;Laerm;29352;48.708;9.290;2023-10-08T10:23:49;53.27;15.00;90.19;;
48148;Laerm;29352;48.708;9.290;2023-10-08T10:26:34;57.09;15.00;93.71;;
48148;Laerm;29352;48.708;9.290;2023-10-08T10:34:17;21.94;15.00;47.70;;
48148;Laerm;29352;48.708;9.290;2023-10-08T10:36:47;60.88;15.00;96.21;;
48148;Laerm;29352;48.708;9.290;2023-10-08T10:39:21;54.70;15.00;90.19;;
48148;Laerm;29352;48.708;9.290;2023-10-08T10:41:59;19.50;15.00;45.04;;
48148;Laerm;29352;48.708;9.290;2023-10-08T10:44:31;57.30;15.00;93.71;;
48148;Laerm;29352;48.708;9.290;2023-10-08T10:46:58;47.96;15.00;84.17;;
48148;Laerm;29352;48.708;9.290;2023-10-08T10:49:44;59.16;15.00;93.71;;
48148;Laerm;29352;48.708;9.290;2023-10-08T10:52:17;33.93;15.00;51.46;;
48148;Laerm;29352;48.708;9.290;2023-10-08T10:55:02;59.50;15.00;96.21;;
48148;Laerm;29352;48.708;9.290;2023-10-08T10:57:53;35.11;15.00;51.30;;
48148;Laerm;29352;48.708;9.290;2023-10-08T11:00:44;58.43;15.00;93.72;;
48148;Laerm;29352;48.708;9.290;2023-10-08T11:03:10;48.03;15.00;84.18;;
48148;Laerm;29352;48.708;9.290;2023-10-08T11:05:46;47.76;15.00;84.18;;
48148;Laerm;29352;48.708;9.290;2023-10-08T11:08:18;60.50;15.00;95.86;;
48148;Laerm;29352;48.708;9.290;2023-10-08T11:10:47;60.18;15.00;96.21;;
48148;Laerm;29352;48.708;9.290;2023-10-08T11:13:22;47.77;15.00;84.17;;
48148;Laerm;29352;48.708;9.290;2023-10-08T11:15:54;57.39;15.00;93.71;;
48148;Laerm;29352;48.708;9.290;2023-10-08T11:18:25;41.56;15.00;51.38;;
48148;Laerm;29352;48.708;9.290;2023-10-08T11:21:05;47.63;15.00;52.47;;
48148;Laerm;29352;48.708;9.290;2023-10-08T11:23:47;50.55;15.00;52.47;;
48148;Laerm;29352;48.708;9.290;2023-10-08T11:26:25;50.04;15.00;52.82;;
48148;Laerm;29352;48.708;9.290;2023-10-08T11:28:59;54.47;15.00;90.19;;
48148;Laerm;29352;48.708;9.290;2023-10-08T11:31:29;15.00;15.00;15.00;;
48148;Laerm;29352;48.708;9.290;2023-10-08T11:34:03;15.00;15.00;15.00;;
48148;Laerm;29352;48.708;9.290;2023-10-08T11:36:37;15.00;15.00;15.00;;
48148;Laerm;29352;48.708;9.290;2023-10-08T11:39:14;15.00;15.00;15.00;;
48148;Laerm;29352;48.708;9.290;2023-10-08T11:42:02;59.56;15.00;96.21;;
48148;Laerm;29352;48.708;9.290;2023-10-08T11:44:33;53.69;15.00;90.20;;
48148;Laerm;29352;48.708;9.290;2023-10-08T11:47:02;17.36;15.00;42.35;;
48148;Laerm;29352;48.708;9.290;2023-10-08T11:49:39;21.03;15.00;44.69;;
48148;Laerm;29352;48.708;9.290;2023-10-08T11:52:13;18.87;15.00;45.04;;
48148;Laerm;29352;48.708;9.290;2023-10-08T11:54:44;15.00;15.00;15.00;;
48148;Laerm;29352;48.708;9.290;2023-10-08T11:57:10;53.89;15.00;90.19;;
48148;Laerm;29352;48.708;9.290;2023-10-08T11:59:36;15.00;15.00;15.00;;
48148;Laerm;29352;48.708;9.290;2023-10-08T12:02:06;15.00;15.00;15.00;;
48148;Laerm;29352;48.708;9.290;2023-10-08T12:04:32;15.31;15.00;39.92;;
48148;Laerm;29352;48.708;9.290;2023-10-08T12:06:58;15.00;15.00;15.00;;
48148;Laerm;29352;48.708;9.290;2023-10-08T12:09:27;15.00;15.00;15.00;;
48148;Laerm;29352;48.708;9.290;2023-10-08T12:11:54;15.00;15.00;15.00;;
48148;Laerm;29352;48.708;9.290;2023-10-08T12:14:21;15.00;15.00;15.00;;
48148;Laerm;29352;48.708;9.290;2023-10-08T12:16:52;15.00;15.00;15.00;;
48148;Laerm;29352;48.708;9.290;2023-10-08T12:19:17;15.00;15.00;15.00;;
48148;Laerm;29352;48.708;9.290;2023-10-08T12:21:44;60.16;15.00;93.71;;
48148;Laerm;29352;48.708;9.290;2023-10-08T12:24:12;15.00;15.00;15.00;;
48148;Laerm;29352;48.708;9.290;2023-10-08T12:26:39;23.31;15.00;50.03;;
48148;Laerm;29352;48.708;9.290;2023-10-08T12:29:12;57.32;15.00;93.72;;
48148;Laerm;29352;48.708;9.290;2023-10-08T12:31:40;15.73;15.00;42.93;;
48148;Laerm;29352;48.708;9.290;2023-10-08T12:34:05;17.14;15.00;44.69;;
48148;Laerm;29352;48.708;9.290;2023-10-08T12:36:31;17.56;15.00;42.35;;
48148;Laerm;29352;48.708;9.290;2023-10-08T12:39:01;36.85;15.00;52.22;;
48148;Laerm;29352;48.708;9.290;2023-10-08T12:41:34;50.76;15.00;52.65;;
48148;Laerm;29352;48.708;9.290;2023-10-08T12:44:04;50.80;48.52;52.29;;
48148;Laerm;29352;48.708;9.290;2023-10-08T12:46:33;50.75;48.37;52.29;;
48148;Laerm;29352;48.708;9.290;2023-10-08T12:48:59;50.72;47.88;52.29;;
48148;Laerm;29352;48.708;9.290;2023-10-08T12:51:28;50.67;48.05;52.59;;
48148;Laerm;29352;48.708;9.290;2023-10-08T12:53:59;50.57;47.70;52.53;;
48148;Laerm;29352;48.708;9.290;2023-10-08T12:56:34;50.58;47.88;52.35;;
48148;Laerm;29352;48.708;9.290;2023-10-08T12:59:14;50.54;47.52;52.16;;
48148;Laerm;29352;48.708;9.290;2023-10-08T13:01:47;50.54;47.70;52.47;;
48148;Laerm;29352;48.708;9.290;2023-10-08T13:04:18;50.54;48.21;52.22;;
48148;Laerm;29352;48.708;9.290;2023-10-08T13:06:51;50.56;48.05;52.41;;
48148;Laerm;29352;48.708;9.290;2023-10-08T13:09:17;50.61;48.05;52.41;;
48148;Laerm;29352;48.708;9.290;2023-10-08T13:11:42;50.64;47.52;52.41;;
48148;Laerm;29352;48.708;9.290;2023-10-08T13:14:08;50.63;47.70;52.41;;
48148;Laerm;29352;48.708;9.290;2023-10-08T13:16:34;50.58;47.88;52.22;;
48148;Laerm;29352;48.708;9.290;2023-10-08T13:19:04;50.56;48.21;52.53;;
48148;Laerm;29352;48.708;9.290;2023-10-08T13:21:30;50.53;48.21;52.22;;
48148;Laerm;29352;48.708;9.290;2023-10-08T13:23:57;50.56;48.05;52.29;;
48148;Laerm;29352;48.708;9.290;2023-10-08T13:26:26;50.47;47.70;52.59;;
48148;Laerm;29352;48.708;9.290;2023-10-08T13:28:59;50.48;47.52;52.22;;
48148;Laerm;29352;48.708;9.290;2023-10-08T13:31:27;50.49;47.52;52.47;;
48148;Laerm;29352;48.708;9.290;2023-10-08T13:33:54;50.49;47.12;52.29;;
48148;Laerm;29352;48.708;9.290;2023-10-08T13:36:23;50.45;47.88;52.76;;
48148;Laerm;29352;48.708;9.290;2023-10-08T13:38:49;50.47;47.12;52.29;;
48148;Laerm;29352;48.708;9.290;2023-10-08T13:41:15;50.46;48.05;52.22;;
48148;Laerm;29352;48.708;9.290;2023-10-08T13:43:46;50.43;45.94;52.29;;
48148;Laerm;29352;48.708;9.290;2023-10-08T13:46:17;50.41;47.70;52.09;;
48148;Laerm;29352;48.708;9.290;2023-10-08T13:48:46;50.44;47.70;52.47;;
48148;Laerm;29352;48.708;9.290;2023-10-08T13:51:17;50.42;47.32;52.53;;
48148;Laerm;29352;48.708;9.290;2023-10-08T13:53:51;50.44;47.70;52.47;;
48148;Laerm;29352;48.708;9.290;2023-10-08T13:56:26;50.41;47.32;52.16;;
48148;Laerm;29352;48.708;9.290;2023-10-08T13:58:53;50.39;47.32;52.16;;
48148;Laerm;29352;48.708;9.290;2023-10-08T14:01:32;50.41;47.70;52.53;;
48148;Laerm;29352;48.708;9.290;2023-10-08T14:04:01;50.41;47.88;52.53;;
48148;Laerm;29352;48.708;9.290;2023-10-08T14:06:38;50.37;47.88;52.22;;
48148;Laerm;29352;48.708;9.290;2023-10-08T14:09:07;50.37;47.52;52.29;;
48148;Laerm;29352;48.708;9.290;2023-10-08T14:11:38;50.39;47.70;52.22;;
48148;Laerm;29352;48.708;9.290;2023-10-08T14:14:04;50.40;47.12;52.09;;
48148;Laerm;29352;48.708;9.290;2023-10-08T14:16:38;50.37;47.70;52.65;;
48148;Laerm;29352;48.708;9.290;2023-10-08T14:19:09;50.37;47.32;52.35;;
48148;Laerm;29352;48.708;9.290;2023-10-08T14:21:41;50.29;47.70;52.13;;
48148;Laerm;29352;48.708;9.290;2023-10-08T14:24:31;50.33;47.88;52.03;;